sensor_id;sensor_type;location;lat;lon;timestamp;P1;durP1;ratioP1;P2;durP2;ratioP2
6292;SDS011;3179;54.350;10.102;2023-04-10T00:01:21;23.50;;;12.20;;
6292;SDS011;3179;54.350;10.102;2023-04-10T00:03:48;23.27;;;11.33;;
6292;SDS011;3179;54.350;10.102;2023-04-10T00:06:14;20.50;;;12.13;;
6292;SDS011;3179;54.350;10.102;2023-04-10T00:08:41;22.03;;;13.43;;
6292;SDS011;3179;54.350;10.102;2023-04-10T00:11:09;20.90;;;13.50;;
6292;SDS011;3179;54.350;10.102;2023-04-10T00:13:36;22.60;;;13.80;;
6292;SDS011;3179;54.350;10.102;2023-04-10T00:16:03;21.27;;;12.27;;
6292;SDS011;3179;54.350;10.102;2023-04-10T00:18:30;27.57;;;12.77;;
6292;SDS011;3179;54.350;10.102;2023-04-10T00:20:57;21.83;;;12.30;;
6292;SDS011;3179;54.350;10.102;2023-04-10T00:23:23;22.67;;;12.40;;
6292;SDS011;3179;54.350;10.102;2023-04-10T00:25:50;21.50;;;13.07;;
6292;SDS011;3179;54.350;10.102;2023-04-10T00:28:18;22.40;;;11.97;;
6292;SDS011;3179;54.350;10.102;2023-04-10T00:30:45;20.27;;;12.80;;
6292;SDS011;3179;54.350;10.102;2023-04-10T00:33:12;21.00;;;12.27;;
6292;SDS011;3179;54.350;10.102;2023-04-10T00:35:39;21.60;;;11.90;;
6292;SDS011;3179;54.350;10.102;2023-04-10T00:38:06;20.33;;;11.87;;
6292;SDS011;3179;54.350;10.102;2023-04-10T00:40:32;23.50;;;11.07;;
6292;SDS011;3179;54.350;10.102;2023-04-10T00:42:59;22.67;;;12.50;;
6292;SDS011;3179;54.350;10.102;2023-04-10T00:45:28;20.57;;;11.70;;
6292;SDS011;3179;54.350;10.102;2023-04-10T00:47:55;24.77;;;12.80;;
6292;SDS011;3179;54.350;10.102;2023-04-10T00:50:22;22.33;;;11.70;;
6292;SDS011;3179;54.350;10.102;2023-04-10T00:52:50;21.97;;;12.57;;
6292;SDS011;3179;54.350;10.102;2023-04-10T00:55:16;23.13;;;12.70;;
6292;SDS011;3179;54.350;10.102;2023-04-10T00:57:44;18.70;;;11.57;;
6292;SDS011;3179;54.350;10.102;2023-04-10T01:00:12;20.40;;;11.10;;
6292;SDS011;3179;54.350;10.102;2023-04-10T01:02:40;20.63;;;12.73;;
6292;SDS011;3179;54.350;10.102;2023-04-10T01:05:07;23.53;;;13.30;;
6292;SDS011;3179;54.350;10.102;2023-04-10T01:07:37;20.67;;;12.17;;
6292;SDS011;3179;54.350;10.102;2023-04-10T01:10:17;20.37;;;12.97;;
6292;SDS011;3179;54.350;10.102;2023-04-10T01:12:58;22.20;;;12.40;;
6292;SDS011;3179;54.350;10.102;2023-04-10T01:15:36;22.00;;;11.37;;
6292;SDS011;3179;54.350;10.102;2023-04-10T01:18:10;16.83;;;11.00;;
6292;SDS011;3179;54.350;10.102;2023-04-10T01:20:41;22.97;;;11.30;;
6292;SDS011;3179;54.350;10.102;2023-04-10T01:23:15;17.53;;;12.00;;
6292;SDS011;3179;54.350;10.102;2023-04-10T01:26:07;26.43;;;13.03;;
6292;SDS011;3179;54.350;10.102;2023-04-10T01:31:28;21.33;;;12.10;;
6292;SDS011;3179;54.350;10.102;2023-04-10T01:34:03;19.60;;;11.60;;
6292;SDS011;3179;54.350;10.102;2023-04-10T01:36:34;19.10;;;11.80;;
6292;SDS011;3179;54.350;10.102;2023-04-10T01:39:03;23.17;;;12.50;;
6292;SDS011;3179;54.350;10.102;2023-04-10T01:41:31;21.50;;;12.53;;
6292;SDS011;3179;54.350;10.102;2023-04-10T01:44:02;19.70;;;12.03;;
6292;SDS011;3179;54.350;10.102;2023-04-10T01:46:31;17.00;;;11.27;;
6292;SDS011;3179;54.350;10.102;2023-04-10T01:48:59;24.33;;;13.20;;
6292;SDS011;3179;54.350;10.102;2023-04-10T01:51:27;21.37;;;13.80;;
6292;SDS011;3179;54.350;10.102;2023-04-10T01:53:56;20.57;;;12.90;;
6292;SDS011;3179;54.350;10.102;2023-04-10T01:56:24;21.53;;;12.50;;
6292;SDS011;3179;54.350;10.102;2023-04-10T01:58:52;22.20;;;12.50;;
6292;SDS011;3179;54.350;10.102;2023-04-10T02:01:20;22.00;;;12.43;;
6292;SDS011;3179;54.350;10.102;2023-04-10T02:03:47;22.77;;;13.30;;
6292;SDS011;3179;54.350;10.102;2023-04-10T02:06:14;19.87;;;11.97;;
6292;SDS011;3179;54.350;10.102;2023-04-10T02:08:48;19.90;;;12.63;;
6292;SDS011;3179;54.350;10.102;2023-04-10T02:11:22;19.90;;;12.07;;
6292;SDS011;3179;54.350;10.102;2023-04-10T02:13:57;18.43;;;10.87;;
6292;SDS011;3179;54.350;10.102;2023-04-10T02:16:28;18.70;;;12.30;;
6292;SDS011;3179;54.350;10.102;2023-04-10T02:18:57;19.10;;;11.90;;
6292;SDS011;3179;54.350;10.102;2023-04-10T02:21:25;21.37;;;12.60;;
6292;SDS011;3179;54.350;10.102;2023-04-10T02:23:53;20.60;;;12.60;;
6292;SDS011;3179;54.350;10.102;2023-04-10T02:26:21;23.63;;;13.53;;
6292;SDS011;3179;54.350;10.102;2023-04-10T02:28:48;27.03;;;12.03;;
6292;SDS011;3179;54.350;10.102;2023-04-10T02:31:15;19.23;;;13.20;;
6292;SDS011;3179;54.350;10.102;2023-04-10T02:33:43;17.27;;;11.30;;
6292;SDS011;3179;54.350;10.102;2023-04-10T02:36:10;21.53;;;11.83;;
6292;SDS011;3179;54.350;10.102;2023-04-10T02:38:36;20.57;;;12.73;;
6292;SDS011;3179;54.350;10.102;2023-04-10T02:41:03;18.70;;;11.63;;
6292;SDS011;3179;54.350;10.102;2023-04-10T02:43:30;17.73;;;11.17;;
6292;SDS011;3179;54.350;10.102;2023-04-10T02:45:57;24.27;;;12.07;;
6292;SDS011;3179;54.350;10.102;2023-04-10T02:48:24;24.20;;;12.80;;
6292;SDS011;3179;54.350;10.102;2023-04-10T02:50:55;23.00;;;12.57;;
6292;SDS011;3179;54.350;10.102;2023-04-10T02:53:22;21.80;;;12.70;;
6292;SDS011;3179;54.350;10.102;2023-04-10T02:55:50;23.23;;;12.93;;
6292;SDS011;3179;54.350;10.102;2023-04-10T02:58:17;18.27;;;11.60;;
6292;SDS011;3179;54.350;10.102;2023-04-10T03:00:46;20.90;;;12.70;;
6292;SDS011;3179;54.350;10.102;2023-04-10T03:03:13;17.00;;;11.30;;
6292;SDS011;3179;54.350;10.102;2023-04-10T03:05:40;19.33;;;12.13;;
6292;SDS011;3179;54.350;10.102;2023-04-10T03:08:08;22.80;;;13.77;;
6292;SDS011;3179;54.350;10.102;2023-04-10T03:10:35;16.60;;;11.33;;
6292;SDS011;3179;54.350;10.102;2023-04-10T03:13:02;17.33;;;11.77;;
6292;SDS011;3179;54.350;10.102;2023-04-10T03:15:28;24.47;;;12.30;;
6292;SDS011;3179;54.350;10.102;2023-04-10T03:17:56;19.73;;;12.23;;
6292;SDS011;3179;54.350;10.102;2023-04-10T03:20:23;19.63;;;12.07;;
6292;SDS011;3179;54.350;10.102;2023-04-10T03:22:49;20.50;;;11.30;;
6292;SDS011;3179;54.350;10.102;2023-04-10T03:25:17;18.50;;;10.70;;
6292;SDS011;3179;54.350;10.102;2023-04-10T03:27:44;17.40;;;12.20;;
6292;SDS011;3179;54.350;10.102;2023-04-10T03:30:11;19.70;;;11.80;;
6292;SDS011;3179;54.350;10.102;2023-04-10T03:32:38;19.43;;;11.80;;
6292;SDS011;3179;54.350;10.102;2023-04-10T03:35:07;20.47;;;12.40;;
6292;SDS011;3179;54.350;10.102;2023-04-10T03:37:34;16.17;;;11.77;;
6292;SDS011;3179;54.350;10.102;2023-04-10T03:40:02;19.77;;;11.90;;
6292;SDS011;3179;54.350;10.102;2023-04-10T03:42:33;19.53;;;11.83;;
6292;SDS011;3179;54.350;10.102;2023-04-10T03:45:00;19.50;;;12.87;;
6292;SDS011;3179;54.350;10.102;2023-04-10T03:47:28;20.37;;;11.07;;
6292;SDS011;3179;54.350;10.102;2023-04-10T03:49:55;18.03;;;11.50;;
6292;SDS011;3179;54.350;10.102;2023-04-10T03:52:22;16.53;;;11.57;;
6292;SDS011;3179;54.350;10.102;2023-04-10T03:54:50;18.00;;;11.03;;
6292;SDS011;3179;54.350;10.102;2023-04-10T03:57:17;19.93;;;10.90;;
6292;SDS011;3179;54.350;10.102;2023-04-10T03:59:46;20.37;;;11.80;;
6292;SDS011;3179;54.350;10.102;2023-04-10T04:02:13;17.90;;;10.70;;
6292;SDS011;3179;54.350;10.102;2023-04-10T04:04:40;22.67;;;11.13;;
6292;SDS011;3179;54.350;10.102;2023-04-10T04:07:07;17.60;;;10.60;;
6292;SDS011;3179;54.350;10.102;2023-04-10T04:09:35;19.07;;;10.90;;
6292;SDS011;3179;54.350;10.102;2023-04-10T04:12:02;17.23;;;11.40;;
6292;SDS011;3179;54.350;10.102;2023-04-10T04:14:28;17.97;;;10.90;;
6292;SDS011;3179;54.350;10.102;2023-04-10T04:16:56;17.43;;;11.73;;
6292;SDS011;3179;54.350;10.102;2023-04-10T04:19:23;17.87;;;10.37;;
6292;SDS011;3179;54.350;10.102;2023-04-10T04:21:50;19.83;;;11.50;;
6292;SDS011;3179;54.350;10.102;2023-04-10T04:24:17;20.20;;;12.20;;
6292;SDS011;3179;54.350;10.102;2023-04-10T04:26:44;21.10;;;11.03;;
6292;SDS011;3179;54.350;10.102;2023-04-10T04:29:11;19.60;;;12.47;;
6292;SDS011;3179;54.350;10.102;2023-04-10T04:31:38;22.87;;;12.43;;
6292;SDS011;3179;54.350;10.102;2023-04-10T04:34:06;23.03;;;12.73;;
6292;SDS011;3179;54.350;10.102;2023-04-10T04:36:32;20.13;;;12.00;;
6292;SDS011;3179;54.350;10.102;2023-04-10T04:38:59;16.03;;;11.00;;
6292;SDS011;3179;54.350;10.102;2023-04-10T04:41:26;16.80;;;11.07;;
6292;SDS011;3179;54.350;10.102;2023-04-10T04:43:54;18.77;;;12.07;;
6292;SDS011;3179;54.350;10.102;2023-04-10T04:46:21;18.80;;;11.97;;
6292;SDS011;3179;54.350;10.102;2023-04-10T04:48:48;21.30;;;12.37;;
6292;SDS011;3179;54.350;10.102;2023-04-10T04:51:16;21.73;;;11.60;;
6292;SDS011;3179;54.350;10.102;2023-04-10T04:53:43;19.10;;;11.80;;
6292;SDS011;3179;54.350;10.102;2023-04-10T04:56:09;18.80;;;12.17;;
6292;SDS011;3179;54.350;10.102;2023-04-10T04:58:36;22.57;;;10.70;;
6292;SDS011;3179;54.350;10.102;2023-04-10T05:01:03;20.33;;;12.73;;
6292;SDS011;3179;54.350;10.102;2023-04-10T05:03:30;18.73;;;11.20;;
6292;SDS011;3179;54.350;10.102;2023-04-10T05:05:57;20.67;;;11.67;;
6292;SDS011;3179;54.350;10.102;2023-04-10T05:08:25;19.80;;;11.83;;
6292;SDS011;3179;54.350;10.102;2023-04-10T05:10:52;18.60;;;11.67;;
6292;SDS011;3179;54.350;10.102;2023-04-10T05:13:19;18.70;;;11.67;;
6292;SDS011;3179;54.350;10.102;2023-04-10T05:15:45;18.27;;;11.50;;
6292;SDS011;3179;54.350;10.102;2023-04-10T05:18:13;19.27;;;12.80;;
6292;SDS011;3179;54.350;10.102;2023-04-10T05:20:43;18.10;;;10.90;;
6292;SDS011;3179;54.350;10.102;2023-04-10T05:23:11;18.67;;;12.03;;
6292;SDS011;3179;54.350;10.102;2023-04-10T05:25:39;18.20;;;11.30;;
6292;SDS011;3179;54.350;10.102;2023-04-10T05:28:06;17.40;;;11.37;;
6292;SDS011;3179;54.350;10.102;2023-04-10T05:30:32;22.17;;;12.67;;
6292;SDS011;3179;54.350;10.102;2023-04-10T05:32:59;20.00;;;13.13;;
6292;SDS011;3179;54.350;10.102;2023-04-10T05:35:26;18.27;;;12.20;;
6292;SDS011;3179;54.350;10.102;2023-04-10T05:37:53;17.20;;;10.20;;
6292;SDS011;3179;54.350;10.102;2023-04-10T05:40:19;20.30;;;11.53;;
6292;SDS011;3179;54.350;10.102;2023-04-10T05:42:48;18.53;;;11.60;;
6292;SDS011;3179;54.350;10.102;2023-04-10T05:45:15;19.13;;;12.70;;
6292;SDS011;3179;54.350;10.102;2023-04-10T05:47:42;17.77;;;12.00;;
6292;SDS011;3179;54.350;10.102;2023-04-10T05:50:09;16.20;;;10.60;;
6292;SDS011;3179;54.350;10.102;2023-04-10T05:52:36;15.37;;;10.97;;
6292;SDS011;3179;54.350;10.102;2023-04-10T05:55:03;21.07;;;12.10;;
6292;SDS011;3179;54.350;10.102;2023-04-10T05:57:30;18.10;;;12.03;;
6292;SDS011;3179;54.350;10.102;2023-04-10T05:59:58;19.97;;;12.23;;
6292;SDS011;3179;54.350;10.102;2023-04-10T06:02:25;21.40;;;12.00;;
6292;SDS011;3179;54.350;10.102;2023-04-10T06:04:52;23.30;;;12.23;;
6292;SDS011;3179;54.350;10.102;2023-04-10T06:07:19;20.70;;;12.50;;
6292;SDS011;3179;54.350;10.102;2023-04-10T06:09:45;19.83;;;12.27;;
6292;SDS011;3179;54.350;10.102;2023-04-10T06:12:12;18.73;;;12.17;;
6292;SDS011;3179;54.350;10.102;2023-04-10T06:14:39;18.90;;;11.67;;
6292;SDS011;3179;54.350;10.102;2023-04-10T06:17:07;19.13;;;11.83;;
6292;SDS011;3179;54.350;10.102;2023-04-10T06:19:34;19.23;;;11.87;;
6292;SDS011;3179;54.350;10.102;2023-04-10T06:22:01;18.57;;;12.47;;
6292;SDS011;3179;54.350;10.102;2023-04-10T06:24:27;19.40;;;12.00;;
6292;SDS011;3179;54.350;10.102;2023-04-10T06:26:54;16.90;;;11.47;;
6292;SDS011;3179;54.350;10.102;2023-04-10T06:29:22;19.23;;;12.60;;
6292;SDS011;3179;54.350;10.102;2023-04-10T06:31:49;19.13;;;12.30;;
6292;SDS011;3179;54.350;10.102;2023-04-10T06:34:17;19.77;;;13.00;;
6292;SDS011;3179;54.350;10.102;2023-04-10T06:36:44;16.97;;;12.00;;
6292;SDS011;3179;54.350;10.102;2023-04-10T06:39:11;16.60;;;12.10;;
6292;SDS011;3179;54.350;10.102;2023-04-10T06:41:38;17.93;;;11.73;;
6292;SDS011;3179;54.350;10.102;2023-04-10T06:44:04;21.27;;;12.70;;
6292;SDS011;3179;54.350;10.102;2023-04-10T06:46:31;21.63;;;12.60;;
6292;SDS011;3179;54.350;10.102;2023-04-10T06:48:58;22.33;;;13.97;;
6292;SDS011;3179;54.350;10.102;2023-04-10T06:51:26;21.93;;;13.43;;
6292;SDS011;3179;54.350;10.102;2023-04-10T06:53:53;20.73;;;13.10;;
6292;SDS011;3179;54.350;10.102;2023-04-10T06:56:20;20.67;;;13.53;;
6292;SDS011;3179;54.350;10.102;2023-04-10T06:58:46;20.97;;;13.43;;
6292;SDS011;3179;54.350;10.102;2023-04-10T07:01:13;21.17;;;12.13;;
6292;SDS011;3179;54.350;10.102;2023-04-10T07:03:41;23.10;;;13.57;;
6292;SDS011;3179;54.350;10.102;2023-04-10T07:06:08;23.10;;;13.50;;
6292;SDS011;3179;54.350;10.102;2023-04-10T07:08:37;20.67;;;12.73;;
6292;SDS011;3179;54.350;10.102;2023-04-10T07:11:03;18.23;;;11.97;;
6292;SDS011;3179;54.350;10.102;2023-04-10T07:13:31;18.70;;;12.20;;
6292;SDS011;3179;54.350;10.102;2023-04-10T07:15:59;20.43;;;12.60;;
6292;SDS011;3179;54.350;10.102;2023-04-10T07:18:26;18.60;;;11.63;;
6292;SDS011;3179;54.350;10.102;2023-04-10T07:20:53;21.30;;;12.77;;
6292;SDS011;3179;54.350;10.102;2023-04-10T07:23:20;22.67;;;14.67;;
6292;SDS011;3179;54.350;10.102;2023-04-10T07:25:48;21.47;;;13.30;;
6292;SDS011;3179;54.350;10.102;2023-04-10T07:28:15;23.20;;;12.77;;
6292;SDS011;3179;54.350;10.102;2023-04-10T07:30:42;19.90;;;12.80;;
6292;SDS011;3179;54.350;10.102;2023-04-10T07:33:09;20.00;;;13.20;;
6292;SDS011;3179;54.350;10.102;2023-04-10T07:35:36;20.90;;;13.70;;
6292;SDS011;3179;54.350;10.102;2023-04-10T07:38:02;20.03;;;15.13;;
6292;SDS011;3179;54.350;10.102;2023-04-10T07:40:29;20.73;;;13.87;;
6292;SDS011;3179;54.350;10.102;2023-04-10T07:42:57;19.37;;;12.23;;
6292;SDS011;3179;54.350;10.102;2023-04-10T07:45:24;18.63;;;13.50;;
6292;SDS011;3179;54.350;10.102;2023-04-10T07:47:52;22.93;;;15.10;;
6292;SDS011;3179;54.350;10.102;2023-04-10T07:50:19;23.10;;;14.67;;
6292;SDS011;3179;54.350;10.102;2023-04-10T07:52:46;23.33;;;14.27;;
6292;SDS011;3179;54.350;10.102;2023-04-10T07:55:13;17.37;;;12.30;;
6292;SDS011;3179;54.350;10.102;2023-04-10T07:57:40;22.53;;;14.77;;
6292;SDS011;3179;54.350;10.102;2023-04-10T08:00:09;20.00;;;12.70;;
6292;SDS011;3179;54.350;10.102;2023-04-10T08:02:36;20.37;;;14.50;;
6292;SDS011;3179;54.350;10.102;2023-04-10T08:05:05;21.40;;;14.33;;
6292;SDS011;3179;54.350;10.102;2023-04-10T08:07:32;18.10;;;13.10;;
6292;SDS011;3179;54.350;10.102;2023-04-10T08:10:00;21.10;;;13.97;;
6292;SDS011;3179;54.350;10.102;2023-04-10T08:12:27;20.00;;;14.37;;
6292;SDS011;3179;54.350;10.102;2023-04-10T08:14:56;17.80;;;12.70;;
6292;SDS011;3179;54.350;10.102;2023-04-10T08:17:24;18.80;;;13.00;;
6292;SDS011;3179;54.350;10.102;2023-04-10T08:19:51;20.00;;;14.73;;
6292;SDS011;3179;54.350;10.102;2023-04-10T08:22:17;20.53;;;13.10;;
6292;SDS011;3179;54.350;10.102;2023-04-10T08:24:44;20.77;;;14.30;;
6292;SDS011;3179;54.350;10.102;2023-04-10T08:27:11;20.70;;;14.33;;
6292;SDS011;3179;54.350;10.102;2023-04-10T08:29:38;20.40;;;14.53;;
6292;SDS011;3179;54.350;10.102;2023-04-10T08:32:04;18.30;;;13.40;;
6292;SDS011;3179;54.350;10.102;2023-04-10T08:34:32;19.13;;;13.27;;
6292;SDS011;3179;54.350;10.102;2023-04-10T08:37:00;20.03;;;13.50;;
6292;SDS011;3179;54.350;10.102;2023-04-10T08:39:29;18.37;;;13.80;;
6292;SDS011;3179;54.350;10.102;2023-04-10T08:41:56;17.43;;;13.47;;
6292;SDS011;3179;54.350;10.102;2023-04-10T08:44:23;16.00;;;11.83;;
6292;SDS011;3179;54.350;10.102;2023-04-10T08:46:50;16.40;;;12.30;;
6292;SDS011;3179;54.350;10.102;2023-04-10T08:49:21;16.17;;;11.77;;
6292;SDS011;3179;54.350;10.102;2023-04-10T08:51:56;18.40;;;14.30;;
6292;SDS011;3179;54.350;10.102;2023-04-10T08:54:26;18.70;;;14.90;;
6292;SDS011;3179;54.350;10.102;2023-04-10T08:56:54;16.97;;;12.40;;
6292;SDS011;3179;54.350;10.102;2023-04-10T08:59:22;15.70;;;12.80;;
6292;SDS011;3179;54.350;10.102;2023-04-10T09:01:50;20.30;;;13.97;;
6292;SDS011;3179;54.350;10.102;2023-04-10T09:04:17;16.23;;;12.07;;
6292;SDS011;3179;54.350;10.102;2023-04-10T09:06:44;18.70;;;13.80;;
6292;SDS011;3179;54.350;10.102;2023-04-10T09:09:12;18.10;;;13.23;;
6292;SDS011;3179;54.350;10.102;2023-04-10T09:11:55;19.87;;;15.23;;
6292;SDS011;3179;54.350;10.102;2023-04-10T09:14:25;16.00;;;13.30;;
6292;SDS011;3179;54.350;10.102;2023-04-10T09:16:53;16.63;;;13.40;;
6292;SDS011;3179;54.350;10.102;2023-04-10T09:19:35;20.90;;;15.03;;
6292;SDS011;3179;54.350;10.102;2023-04-10T09:22:02;21.13;;;13.63;;
6292;SDS011;3179;54.350;10.102;2023-04-10T09:24:30;17.47;;;13.07;;
6292;SDS011;3179;54.350;10.102;2023-04-10T09:27:02;17.30;;;13.30;;
6292;SDS011;3179;54.350;10.102;2023-04-10T09:29:37;14.73;;;11.80;;
6292;SDS011;3179;54.350;10.102;2023-04-10T09:32:06;15.80;;;11.87;;
6292;SDS011;3179;54.350;10.102;2023-04-10T09:34:33;18.93;;;13.07;;
6292;SDS011;3179;54.350;10.102;2023-04-10T09:37:01;16.23;;;12.17;;
6292;SDS011;3179;54.350;10.102;2023-04-10T09:39:33;15.70;;;12.27;;
6292;SDS011;3179;54.350;10.102;2023-04-10T09:42:01;14.47;;;11.53;;
6292;SDS011;3179;54.350;10.102;2023-04-10T09:44:28;15.10;;;12.27;;
6292;SDS011;3179;54.350;10.102;2023-04-10T09:46:56;14.33;;;11.33;;
6292;SDS011;3179;54.350;10.102;2023-04-10T09:49:23;15.10;;;11.60;;
6292;SDS011;3179;54.350;10.102;2023-04-10T09:51:49;18.43;;;11.87;;
6292;SDS011;3179;54.350;10.102;2023-04-10T09:54:16;14.10;;;11.40;;
6292;SDS011;3179;54.350;10.102;2023-04-10T09:56:44;13.30;;;11.00;;
6292;SDS011;3179;54.350;10.102;2023-04-10T09:59:13;11.83;;;10.50;;
6292;SDS011;3179;54.350;10.102;2023-04-10T10:01:41;14.87;;;10.20;;
6292;SDS011;3179;54.350;10.102;2023-04-10T10:04:09;12.63;;;10.40;;
6292;SDS011;3179;54.350;10.102;2023-04-10T10:06:39;13.60;;;10.60;;
6292;SDS011;3179;54.350;10.102;2023-04-10T10:09:06;12.63;;;10.17;;
6292;SDS011;3179;54.350;10.102;2023-04-10T10:11:33;11.63;;;9.90;;
6292;SDS011;3179;54.350;10.102;2023-04-10T10:14:03;11.10;;;9.20;;
6292;SDS011;3179;54.350;10.102;2023-04-10T10:16:38;12.70;;;10.23;;
6292;SDS011;3179;54.350;10.102;2023-04-10T10:19:11;13.33;;;9.93;;
6292;SDS011;3179;54.350;10.102;2023-04-10T10:21:44;12.13;;;10.60;;
6292;SDS011;3179;54.350;10.102;2023-04-10T10:24:12;10.70;;;9.60;;
6292;SDS011;3179;54.350;10.102;2023-04-10T10:26:39;12.50;;;10.30;;
6292;SDS011;3179;54.350;10.102;2023-04-10T10:29:07;12.90;;;9.93;;
6292;SDS011;3179;54.350;10.102;2023-04-10T10:31:35;13.47;;;11.10;;
6292;SDS011;3179;54.350;10.102;2023-04-10T10:34:02;13.90;;;10.30;;
6292;SDS011;3179;54.350;10.102;2023-04-10T10:36:31;11.73;;;9.97;;
6292;SDS011;3179;54.350;10.102;2023-04-10T10:39:03;12.47;;;10.03;;
6292;SDS011;3179;54.350;10.102;2023-04-10T10:41:55;10.97;;;9.40;;
6292;SDS011;3179;54.350;10.102;2023-04-10T10:44:31;11.10;;;9.33;;
6292;SDS011;3179;54.350;10.102;2023-04-10T10:47:06;10.60;;;9.03;;
6292;SDS011;3179;54.350;10.102;2023-04-10T10:49:52;9.23;;;8.20;;
6292;SDS011;3179;54.350;10.102;2023-04-10T10:52:36;13.93;;;9.70;;
6292;SDS011;3179;54.350;10.102;2023-04-10T10:55:26;12.73;;;9.80;;
6292;SDS011;3179;54.350;10.102;2023-04-10T10:57:59;9.93;;;8.93;;
6292;SDS011;3179;54.350;10.102;2023-04-10T11:03:36;10.83;;;8.40;;
6292;SDS011;3179;54.350;10.102;2023-04-10T11:06:04;12.83;;;8.23;;
6292;SDS011;3179;54.350;10.102;2023-04-10T11:08:36;9.47;;;8.40;;
6292;SDS011;3179;54.350;10.102;2023-04-10T11:11:06;12.83;;;9.23;;
6292;SDS011;3179;54.350;10.102;2023-04-10T11:13:35;10.70;;;8.97;;
6292;SDS011;3179;54.350;10.102;2023-04-10T11:16:04;9.60;;;8.50;;
6292;SDS011;3179;54.350;10.102;2023-04-10T11:21:31;11.20;;;8.80;;
6292;SDS011;3179;54.350;10.102;2023-04-10T11:24:02;8.67;;;7.63;;
6292;SDS011;3179;54.350;10.102;2023-04-10T11:26:34;9.27;;;7.40;;
6292;SDS011;3179;54.350;10.102;2023-04-10T11:29:02;8.77;;;7.87;;
6292;SDS011;3179;54.350;10.102;2023-04-10T11:31:30;8.47;;;7.60;;
6292;SDS011;3179;54.350;10.102;2023-04-10T11:34:00;9.87;;;8.00;;
6292;SDS011;3179;54.350;10.102;2023-04-10T11:36:29;8.10;;;7.30;;
6292;SDS011;3179;54.350;10.102;2023-04-10T11:38:57;10.30;;;8.50;;
6292;SDS011;3179;54.350;10.102;2023-04-10T11:41:25;8.53;;;7.27;;
6292;SDS011;3179;54.350;10.102;2023-04-10T11:43:54;8.70;;;7.80;;
6292;SDS011;3179;54.350;10.102;2023-04-10T11:46:21;9.60;;;8.00;;
6292;SDS011;3179;54.350;10.102;2023-04-10T11:48:51;8.20;;;7.40;;
6292;SDS011;3179;54.350;10.102;2023-04-10T11:51:18;8.13;;;7.23;;
6292;SDS011;3179;54.350;10.102;2023-04-10T11:53:46;10.60;;;7.87;;
6292;SDS011;3179;54.350;10.102;2023-04-10T11:56:14;10.60;;;7.70;;
6292;SDS011;3179;54.350;10.102;2023-04-10T11:58:41;7.93;;;7.10;;
6292;SDS011;3179;54.350;10.102;2023-04-10T12:01:09;6.20;;;5.60;;
6292;SDS011;3179;54.350;10.102;2023-04-10T12:03:38;8.07;;;7.27;;
6292;SDS011;3179;54.350;10.102;2023-04-10T12:06:07;8.73;;;7.37;;
6292;SDS011;3179;54.350;10.102;2023-04-10T12:08:35;11.83;;;7.30;;
6292;SDS011;3179;54.350;10.102;2023-04-10T12:11:06;9.07;;;6.67;;
6292;SDS011;3179;54.350;10.102;2023-04-10T12:13:33;12.13;;;7.20;;
6292;SDS011;3179;54.350;10.102;2023-04-10T12:16:02;7.90;;;7.10;;
6292;SDS011;3179;54.350;10.102;2023-04-10T12:18:31;8.70;;;7.53;;
6292;SDS011;3179;54.350;10.102;2023-04-10T12:20:59;8.07;;;7.20;;
6292;SDS011;3179;54.350;10.102;2023-04-10T12:23:26;8.20;;;6.30;;
6292;SDS011;3179;54.350;10.102;2023-04-10T12:26:06;8.43;;;7.50;;
6292;SDS011;3179;54.350;10.102;2023-04-10T12:28:34;7.70;;;6.90;;
6292;SDS011;3179;54.350;10.102;2023-04-10T12:31:02;6.90;;;6.23;;
6292;SDS011;3179;54.350;10.102;2023-04-10T12:33:29;7.57;;;6.80;;
6292;SDS011;3179;54.350;10.102;2023-04-10T12:35:57;5.90;;;5.30;;
6292;SDS011;3179;54.350;10.102;2023-04-10T12:38:34;7.53;;;6.73;;
6292;SDS011;3179;54.350;10.102;2023-04-10T12:41:06;8.03;;;5.70;;
6292;SDS011;3179;54.350;10.102;2023-04-10T12:43:34;6.43;;;5.83;;
6292;SDS011;3179;54.350;10.102;2023-04-10T12:46:03;8.40;;;6.27;;
6292;SDS011;3179;54.350;10.102;2023-04-10T12:48:30;9.43;;;6.50;;
6292;SDS011;3179;54.350;10.102;2023-04-10T12:50:58;6.30;;;5.67;;
6292;SDS011;3179;54.350;10.102;2023-04-10T12:53:25;6.53;;;5.70;;
6292;SDS011;3179;54.350;10.102;2023-04-10T12:55:56;7.33;;;5.57;;
6292;SDS011;3179;54.350;10.102;2023-04-10T12:58:25;8.90;;;5.47;;
6292;SDS011;3179;54.350;10.102;2023-04-10T13:00:53;5.10;;;4.60;;
6292;SDS011;3179;54.350;10.102;2023-04-10T13:03:21;5.80;;;5.20;;
6292;SDS011;3179;54.350;10.102;2023-04-10T13:05:47;5.50;;;5.00;;
6292;SDS011;3179;54.350;10.102;2023-04-10T13:08:15;5.90;;;5.30;;
6292;SDS011;3179;54.350;10.102;2023-04-10T13:10:42;6.40;;;5.47;;
6292;SDS011;3179;54.350;10.102;2023-04-10T13:13:09;6.70;;;5.57;;
6292;SDS011;3179;54.350;10.102;2023-04-10T13:15:38;14.60;;;6.50;;
6292;SDS011;3179;54.350;10.102;2023-04-10T13:18:05;10.00;;;5.10;;
6292;SDS011;3179;54.350;10.102;2023-04-10T13:20:34;4.90;;;4.40;;
6292;SDS011;3179;54.350;10.102;2023-04-10T13:23:02;5.10;;;4.50;;
6292;SDS011;3179;54.350;10.102;2023-04-10T13:25:30;9.67;;;4.93;;
6292;SDS011;3179;54.350;10.102;2023-04-10T13:27:58;5.80;;;5.30;;
6292;SDS011;3179;54.350;10.102;2023-04-10T13:30:26;5.73;;;5.10;;
6292;SDS011;3179;54.350;10.102;2023-04-10T13:32:54;6.13;;;5.50;;
6292;SDS011;3179;54.350;10.102;2023-04-10T13:35:21;7.73;;;5.10;;
6292;SDS011;3179;54.350;10.102;2023-04-10T13:37:48;5.43;;;4.90;;
6292;SDS011;3179;54.350;10.102;2023-04-10T13:40:17;6.90;;;4.90;;
6292;SDS011;3179;54.350;10.102;2023-04-10T13:42:45;7.53;;;4.90;;
6292;SDS011;3179;54.350;10.102;2023-04-10T13:45:12;4.17;;;3.77;;
6292;SDS011;3179;54.350;10.102;2023-04-10T13:47:39;4.50;;;4.10;;
6292;SDS011;3179;54.350;10.102;2023-04-10T13:50:07;7.57;;;5.13;;
6292;SDS011;3179;54.350;10.102;2023-04-10T13:52:35;6.40;;;4.80;;
6292;SDS011;3179;54.350;10.102;2023-04-10T13:55:02;4.27;;;3.87;;
6292;SDS011;3179;54.350;10.102;2023-04-10T13:57:29;6.87;;;5.23;;
6292;SDS011;3179;54.350;10.102;2023-04-10T13:59:56;5.33;;;4.20;;
6292;SDS011;3179;54.350;10.102;2023-04-10T14:02:22;6.03;;;5.43;;
6292;SDS011;3179;54.350;10.102;2023-04-10T14:04:49;4.93;;;4.47;;
6292;SDS011;3179;54.350;10.102;2023-04-10T14:07:18;5.40;;;4.77;;
6292;SDS011;3179;54.350;10.102;2023-04-10T14:09:44;5.63;;;4.97;;
6292;SDS011;3179;54.350;10.102;2023-04-10T14:12:12;5.70;;;4.83;;
6292;SDS011;3179;54.350;10.102;2023-04-10T14:14:40;4.67;;;4.27;;
6292;SDS011;3179;54.350;10.102;2023-04-10T14:17:07;4.73;;;4.30;;
6292;SDS011;3179;54.350;10.102;2023-04-10T14:19:34;4.37;;;3.97;;
6292;SDS011;3179;54.350;10.102;2023-04-10T14:22:02;5.63;;;4.83;;
6292;SDS011;3179;54.350;10.102;2023-04-10T14:24:30;5.83;;;4.50;;
6292;SDS011;3179;54.350;10.102;2023-04-10T14:26:57;6.30;;;4.37;;
6292;SDS011;3179;54.350;10.102;2023-04-10T14:29:25;5.17;;;4.67;;
6292;SDS011;3179;54.350;10.102;2023-04-10T14:31:52;5.60;;;5.00;;
6292;SDS011;3179;54.350;10.102;2023-04-10T14:34:19;4.83;;;4.30;;
6292;SDS011;3179;54.350;10.102;2023-04-10T14:36:46;5.33;;;4.83;;
6292;SDS011;3179;54.350;10.102;2023-04-10T14:39:13;5.50;;;5.00;;
6292;SDS011;3179;54.350;10.102;2023-04-10T14:41:41;5.23;;;4.73;;
6292;SDS011;3179;54.350;10.102;2023-04-10T14:44:08;5.30;;;4.80;;
6292;SDS011;3179;54.350;10.102;2023-04-10T14:46:34;5.10;;;4.60;;
6292;SDS011;3179;54.350;10.102;2023-04-10T14:49:01;5.80;;;4.70;;
6292;SDS011;3179;54.350;10.102;2023-04-10T14:51:28;5.10;;;4.70;;
6292;SDS011;3179;54.350;10.102;2023-04-10T14:53:55;4.67;;;4.27;;
6292;SDS011;3179;54.350;10.102;2023-04-10T14:56:22;4.60;;;4.20;;